Hazel Crest, Illinois
Current Conditions -  °F | °C
As of 8:15 AM on Sunday 25 Jan 2015 (Local Time) from KIGQ Reporting Station
Light Rain Light Rain  
Wind Chill: 27°   Ceiling: 600
Heat Index: 35°   Visibility: 1.7mi
Dew Point: 34°   Wind: 9mph
Humidity: 96%   Direction: 50°NE
Pressure: 29.72"   Gusts: 16mph
Location:  41.58°N, 87.69°W
Report Text: KIGQ 251415Z AUTO 05008G14KT 1 3/4SM -RA OVC006 02/01 A2972 RMK AO2 T00150009
Loading
Personal Weather Stations






























Interactive Weather Map New forecast layout! Learn more

10-Day Weather Forecast

Advertisements
Track Severe Weather on mobile